createdAt,value
2023-04-03T00:00:47.779Z,78.24
2023-04-03T00:03:15.766Z,78.17
2023-04-03T00:05:43.661Z,78.15
2023-04-03T00:08:11.469Z,78.64
2023-04-03T00:10:39.439Z,78.93
2023-04-03T00:13:08.400Z,78.50
2023-04-03T00:15:37.969Z,77.82
2023-04-03T00:18:06.533Z,77.88
2023-04-03T00:20:35.365Z,77.85
2023-04-03T00:23:03.911Z,78.18
2023-04-03T00:25:31.400Z,77.51
2023-04-03T00:27:58.866Z,77.07
2023-04-03T00:30:26.524Z,76.43
2023-04-03T00:32:55.644Z,76.81
2023-04-03T00:35:24.302Z,77.34
2023-04-03T00:37:53.992Z,77.16
2023-04-03T00:40:23.224Z,77.90
2023-04-03T00:42:54.290Z,77.15
2023-04-03T00:45:29.838Z,76.95
2023-04-03T00:48:01.403Z,77.32
2023-04-03T00:50:30.400Z,76.97
2023-04-03T00:52:59.407Z,78.03
2023-04-03T00:55:27.199Z,77.40
2023-04-03T00:57:56.089Z,76.88
2023-04-03T01:00:25.133Z,76.39
2023-04-03T01:02:53.341Z,76.42
2023-04-03T01:05:23.575Z,76.90
2023-04-03T01:07:53.132Z,78.57
2023-04-03T01:10:21.833Z,78.86
2023-04-03T01:12:51.236Z,77.79
2023-04-03T01:15:20.657Z,77.83
2023-04-03T01:17:49.533Z,77.12
2023-04-03T01:20:40.540Z,76.86
2023-04-03T01:23:19.973Z,77.74
2023-04-03T01:25:50.658Z,78.36
2023-04-03T01:28:21.369Z,78.55
2023-04-03T01:30:53.072Z,78.57
2023-04-03T01:33:22.092Z,79.02
2023-04-03T01:35:49.552Z,78.86
2023-04-03T01:38:17.117Z,78.09
2023-04-03T01:40:44.553Z,78.52
2023-04-03T01:43:12.017Z,78.56
2023-04-03T01:45:39.600Z,78.35
2023-04-03T01:48:07.224Z,79.70
2023-04-03T01:50:36.183Z,80.02
2023-04-03T01:53:03.679Z,79.51
2023-04-03T01:55:31.068Z,80.01
2023-04-03T01:57:59.481Z,79.44
2023-04-03T02:00:27.664Z,78.13
2023-04-03T02:02:55.425Z,78.67
2023-04-03T02:05:23.073Z,77.65
2023-04-03T02:07:51.868Z,76.88
2023-04-03T02:10:19.506Z,79.28
2023-04-03T02:12:48.516Z,78.15
2023-04-03T02:15:16.331Z,77.69
2023-04-03T02:17:43.872Z,77.54
2023-04-03T02:20:11.900Z,76.62
2023-04-03T02:22:39.334Z,77.13
2023-04-03T02:25:08.777Z,77.01
2023-04-03T02:27:36.515Z,76.24
2023-04-03T02:30:04.479Z,78.43
2023-04-03T02:32:31.958Z,78.46
2023-04-03T02:34:59.416Z,78.66
2023-04-03T02:37:26.888Z,78.82
2023-04-03T02:39:54.345Z,78.38
2023-04-03T02:42:23.069Z,78.07
2023-04-03T02:44:50.504Z,79.08
2023-04-03T02:47:17.962Z,77.26
2023-04-03T02:49:46.893Z,78.10
2023-04-03T02:52:14.641Z,78.39
2023-04-03T02:54:42.380Z,79.87
2023-04-03T02:57:10.600Z,80.06
2023-04-03T02:59:41.465Z,78.58
2023-04-03T03:02:09.263Z,79.40
2023-04-03T03:04:37.521Z,79.63
2023-04-03T03:07:05.384Z,78.65
2023-04-03T03:09:32.846Z,78.90
2023-04-03T03:12:00.536Z,79.82
2023-04-03T03:14:28.022Z,79.15
2023-04-03T03:16:56.758Z,78.74
2023-04-03T03:19:24.224Z,79.92
2023-04-03T03:21:52.042Z,80.72
2023-04-03T03:24:19.548Z,80.98
2023-04-03T03:26:46.988Z,79.83
2023-04-03T03:29:14.415Z,80.36
2023-04-03T03:31:41.970Z,79.72
2023-04-03T03:34:10.942Z,78.70
2023-04-03T03:36:38.387Z,80.16
2023-04-03T03:39:06.050Z,81.05
2023-04-03T03:41:33.499Z,80.08
2023-04-03T03:44:00.934Z,79.27
2023-04-03T03:46:28.408Z,78.72
2023-04-03T03:48:55.876Z,78.04
2023-04-03T03:51:24.644Z,79.10
2023-04-03T03:53:52.084Z,80.10
2023-04-03T03:56:19.514Z,79.23
2023-04-03T03:58:46.998Z,79.47
2023-04-03T04:01:14.453Z,78.21
2023-04-03T04:03:42.067Z,79.73
2023-04-03T04:06:09.534Z,79.63
2023-04-03T04:08:38.311Z,81.41
2023-04-03T04:11:05.740Z,81.24
2023-04-03T04:13:33.146Z,82.56
2023-04-03T04:16:00.590Z,80.35
2023-04-03T04:18:28.056Z,79.88
2023-04-03T04:20:55.660Z,81.56
2023-04-03T04:23:23.141Z,81.80
2023-04-03T04:25:53.030Z,80.69
2023-04-03T04:28:20.493Z,80.29
2023-04-03T04:30:47.974Z,81.78
2023-04-03T04:33:15.899Z,80.30
2023-04-03T04:35:44.383Z,80.28
2023-04-03T04:38:11.887Z,82.27
2023-04-03T04:40:39.328Z,82.41
2023-04-03T04:43:08.063Z,82.93
2023-04-03T04:45:35.804Z,82.71
2023-04-03T04:48:03.554Z,82.47
2023-04-03T04:50:31.144Z,81.52
2023-04-03T04:52:58.567Z,81.54
2023-04-03T04:55:26.256Z,82.41
2023-04-03T04:57:53.701Z,81.78
2023-04-03T05:00:23.283Z,81.85
2023-04-03T05:02:50.755Z,81.98
2023-04-03T05:05:18.338Z,81.33
2023-04-03T05:07:45.900Z,80.55
2023-04-03T05:10:13.388Z,80.01
2023-04-03T05:12:41.234Z,79.53
2023-04-03T05:15:09.980Z,80.61
2023-04-03T05:17:38.713Z,79.30
2023-04-03T05:20:07.658Z,80.55
2023-04-03T05:22:35.251Z,78.94
2023-04-03T05:25:02.766Z,77.28
2023-04-03T05:27:30.233Z,75.90
2023-04-03T05:29:58.681Z,75.55
2023-04-03T05:32:27.909Z,74.36
2023-04-03T05:34:56.924Z,76.41
2023-04-03T05:37:24.976Z,76.54
2023-04-03T05:39:52.531Z,75.81
2023-04-03T05:42:19.948Z,74.33
2023-04-03T05:44:48.176Z,72.69
2023-04-03T05:47:15.625Z,73.12
2023-04-03T05:49:43.128Z,70.32
2023-04-03T05:52:22.355Z,65.27
2023-04-03T05:54:50.149Z,60.39
2023-04-03T05:57:18.022Z,57.20
2023-04-03T05:59:46.270Z,63.89
2023-04-03T06:02:15.619Z,69.40
2023-04-03T06:04:43.299Z,73.70
2023-04-03T06:07:16.455Z,74.81
2023-04-03T06:09:44.406Z,74.91
2023-04-03T06:12:12.292Z,77.51
2023-04-03T06:14:39.844Z,78.98
2023-04-03T06:17:08.183Z,77.09
2023-04-03T06:19:35.729Z,77.42
2023-04-03T06:22:03.916Z,76.18
2023-04-03T06:24:33.344Z,76.49
2023-04-03T06:27:00.852Z,75.89
2023-04-03T06:29:28.291Z,74.39
2023-04-03T06:31:55.909Z,76.32
2023-04-03T06:34:23.519Z,76.80
2023-04-03T06:36:51.651Z,74.14
2023-04-03T06:39:27.341Z,74.87
2023-04-03T06:41:56.271Z,75.93
2023-04-03T06:44:23.760Z,74.79
2023-04-03T06:46:51.208Z,73.94
2023-04-03T06:49:18.626Z,74.43
2023-04-03T06:51:46.112Z,74.17
2023-04-03T06:54:13.668Z,73.00
2023-04-03T07:00:04.343Z,71.34
2023-04-03T07:02:33.251Z,73.07
2023-04-03T07:05:00.677Z,72.70
2023-04-03T07:07:28.141Z,71.40
2023-04-03T07:09:55.769Z,70.36
2023-04-03T07:12:23.183Z,69.42
2023-04-03T07:14:50.631Z,69.60
2023-04-03T07:17:18.564Z,69.67
2023-04-03T07:19:47.415Z,68.35
2023-04-03T07:22:14.832Z,66.39
2023-04-03T07:24:42.293Z,66.88
2023-04-03T07:27:09.752Z,66.18
2023-04-03T07:29:37.602Z,66.58
2023-04-03T07:32:05.430Z,63.84
2023-04-03T07:34:33.573Z,65.17
2023-04-03T07:37:03.468Z,64.75
2023-04-03T07:39:31.060Z,64.72
2023-04-03T07:41:58.452Z,63.20
2023-04-03T07:44:26.302Z,62.44
2023-04-03T07:46:53.762Z,63.04
2023-04-03T07:49:21.260Z,63.46
2023-04-03T07:51:49.530Z,63.06
2023-04-03T07:54:18.268Z,63.23
2023-04-03T07:56:46.081Z,62.72
2023-04-03T07:59:13.515Z,63.51
2023-04-03T08:01:41.017Z,62.79
2023-04-03T08:04:08.710Z,61.57
2023-04-03T08:06:45.562Z,61.83
2023-04-03T08:09:14.434Z,62.45
2023-04-03T08:11:43.311Z,62.90
2023-04-03T08:14:16.396Z,62.11
2023-04-03T08:16:44.623Z,61.26
2023-04-03T08:19:18.918Z,61.00
2023-04-03T08:21:52.632Z,61.09
2023-04-03T08:24:20.037Z,60.70
2023-04-03T08:26:48.785Z,61.04
2023-04-03T08:29:16.176Z,61.47
2023-04-03T08:31:43.843Z,60.71
2023-04-03T08:34:12.355Z,59.82
2023-04-03T08:36:39.761Z,60.35
2023-04-03T08:39:07.450Z,60.93
2023-04-03T08:41:36.788Z,61.41
2023-04-03T08:44:17.239Z,60.47
2023-04-03T08:47:06.261Z,59.32
2023-04-03T08:49:37.468Z,59.88
2023-04-03T08:52:12.097Z,59.18
2023-04-03T08:54:51.703Z,60.46
2023-04-03T08:57:24.717Z,61.42
2023-04-03T08:59:53.991Z,60.16
2023-04-03T09:02:35.357Z,60.35
2023-04-03T09:05:12.200Z,58.83
2023-04-03T09:07:44.623Z,59.67
2023-04-03T09:10:14.070Z,58.22
2023-04-03T09:12:44.486Z,58.87
2023-04-03T09:15:27.811Z,57.75
2023-04-03T09:18:04.902Z,57.85
2023-04-03T09:20:43.389Z,56.75
2023-04-03T09:23:22.550Z,56.75
2023-04-03T09:25:52.212Z,55.33
2023-04-03T09:28:19.629Z,56.02
2023-04-03T09:30:48.356Z,56.22
2023-04-03T09:33:16.194Z,56.53
2023-04-03T09:35:48.215Z,56.13
2023-04-03T09:38:19.654Z,56.17
2023-04-03T09:40:49.375Z,55.60
2023-04-03T09:43:29.082Z,56.37
2023-04-03T09:46:19.422Z,57.66
2023-04-03T09:49:08.325Z,55.47
2023-04-03T09:51:37.765Z,55.30
2023-04-03T09:54:28.153Z,55.59
2023-04-03T09:56:57.655Z,54.58
2023-04-03T09:59:25.782Z,54.17
2023-04-03T10:02:03.797Z,53.89
2023-04-03T10:04:41.230Z,55.06
2023-04-03T10:07:33.840Z,56.14
2023-04-03T10:10:04.985Z,55.21
2023-04-03T10:12:32.434Z,54.89
2023-04-03T10:15:01.521Z,55.00
2023-04-03T10:17:54.865Z,54.37
2023-04-03T10:20:32.829Z,54.08
2023-04-03T10:23:14.558Z,53.74
2023-04-03T10:25:50.022Z,52.53
2023-04-03T10:28:27.356Z,53.17
2023-04-03T10:31:02.840Z,52.36
2023-04-03T10:33:47.723Z,51.96
2023-04-03T10:36:26.203Z,52.00
2023-04-03T10:39:02.874Z,52.01
2023-04-03T10:41:42.113Z,52.15
2023-04-03T10:44:18.560Z,52.20
2023-04-03T10:46:50.845Z,52.26
2023-04-03T10:49:30.660Z,51.36
2023-04-03T10:52:06.050Z,51.83
2023-04-03T10:54:39.896Z,51.17
2023-04-03T10:57:13.049Z,51.57
2023-04-03T10:59:45.899Z,50.91
2023-04-03T11:02:23.091Z,50.88
2023-04-03T11:04:55.446Z,51.67
2023-04-03T11:07:26.516Z,51.42
2023-04-03T11:09:59.756Z,52.21
2023-04-03T11:12:33.636Z,52.10
2023-04-03T11:15:03.912Z,53.20
2023-04-03T11:17:37.754Z,52.87
2023-04-03T11:20:17.478Z,52.19
2023-04-03T11:22:50.918Z,52.26
2023-04-03T11:25:23.246Z,52.79
2023-04-03T11:27:54.651Z,52.91
2023-04-03T11:30:27.129Z,53.79
2023-04-03T11:33:24.429Z,54.35
2023-04-03T11:35:56.306Z,53.00
2023-04-03T11:38:28.048Z,53.97
2023-04-03T11:40:57.845Z,54.57
2023-04-03T11:43:28.280Z,54.89
2023-04-03T11:46:00.148Z,55.24
2023-04-03T11:48:54.197Z,53.90
2023-04-03T11:51:43.718Z,53.89
2023-04-03T11:54:47.189Z,54.59
2023-04-03T11:57:45.637Z,54.95
2023-04-03T12:00:51.881Z,56.02
2023-04-03T12:03:56.873Z,56.38
2023-04-03T12:07:13.564Z,56.86
2023-04-03T12:10:30.948Z,56.56
2023-04-03T12:13:00.728Z,56.63
2023-04-03T12:15:48.830Z,56.65
2023-04-03T12:18:53.335Z,55.84
2023-04-03T12:21:22.924Z,57.64
2023-04-03T12:24:15.515Z,56.37
2023-04-03T12:26:49.097Z,56.53
2023-04-03T12:29:22.486Z,57.01
2023-04-03T12:32:08.382Z,58.09
2023-04-03T12:34:56.834Z,57.57
2023-04-03T12:37:42.056Z,57.75
2023-04-03T12:40:21.488Z,56.75
2023-04-03T12:43:08.520Z,56.22
2023-04-03T12:45:45.150Z,55.07
2023-04-03T12:48:17.047Z,53.10
2023-04-03T12:50:47.459Z,53.24
2023-04-03T12:53:18.624Z,52.59
2023-04-03T12:55:47.467Z,52.76
2023-04-03T12:58:17.734Z,53.88
2023-04-03T13:00:45.149Z,53.08
2023-04-03T13:03:24.829Z,54.52
2023-04-03T13:05:52.832Z,54.25
2023-04-03T13:08:21.674Z,55.38
2023-04-03T13:10:56.955Z,55.15
2023-04-03T13:13:24.906Z,56.57
2023-04-03T13:15:53.718Z,56.85
2023-04-03T13:18:30.913Z,56.80
2023-04-03T13:21:03.498Z,56.95
2023-04-03T13:23:32.316Z,57.19
2023-04-03T13:26:04.397Z,57.57
2023-04-03T13:28:33.713Z,57.57
2023-04-03T13:31:05.501Z,57.49
2023-04-03T13:33:38.743Z,56.96
2023-04-03T13:36:09.910Z,56.85
2023-04-03T13:38:37.530Z,56.51
2023-04-03T13:41:25.116Z,56.41
2023-04-03T13:43:53.774Z,56.00
2023-04-03T13:46:28.034Z,56.15
2023-04-03T13:48:58.148Z,57.12
2023-04-03T13:51:27.728Z,56.75
2023-04-03T13:53:56.884Z,56.91
2023-04-03T13:56:32.750Z,56.67
2023-04-03T13:59:05.865Z,56.57
2023-04-03T14:01:52.469Z,57.22
2023-04-03T14:04:22.502Z,57.65
2023-04-03T14:06:51.182Z,57.93
2023-04-03T14:09:20.993Z,57.94
2023-04-03T14:11:52.513Z,58.26
2023-04-03T14:14:22.759Z,58.19
2023-04-03T14:16:55.121Z,58.71
2023-04-03T14:19:25.701Z,58.30
2023-04-03T14:21:54.490Z,57.68
2023-04-03T14:24:23.328Z,57.45
2023-04-03T14:26:54.341Z,58.04
2023-04-03T14:29:23.387Z,57.88
2023-04-03T14:32:00.441Z,57.64
2023-04-03T14:34:35.224Z,57.05
2023-04-03T14:37:02.790Z,56.96
2023-04-03T14:39:31.175Z,56.58
2023-04-03T14:41:59.897Z,55.79
2023-04-03T14:44:27.272Z,57.12
2023-04-03T14:46:57.048Z,57.20
2023-04-03T14:49:29.057Z,59.00
2023-04-03T14:51:57.602Z,59.87
2023-04-03T14:54:28.770Z,59.84
2023-04-03T14:57:14.683Z,60.02
2023-04-03T14:59:44.155Z,59.89
2023-04-03T15:02:27.179Z,59.63
2023-04-03T15:04:54.967Z,60.12
2023-04-03T15:07:22.891Z,59.45
2023-04-03T15:09:50.655Z,60.08
2023-04-03T15:12:18.695Z,58.76
2023-04-03T15:14:53.561Z,59.61
2023-04-03T15:17:28.500Z,60.59
2023-04-03T15:19:56.049Z,61.59
2023-04-03T15:22:23.555Z,61.57
2023-04-03T15:24:50.995Z,62.39
2023-04-03T15:27:18.742Z,62.12
2023-04-03T15:29:47.682Z,62.59
2023-04-03T15:32:15.395Z,63.01
2023-04-03T15:34:43.217Z,62.70
2023-04-03T15:37:10.827Z,60.54
2023-04-03T15:39:38.291Z,62.74
2023-04-03T15:42:07.178Z,62.40
2023-04-03T15:44:36.114Z,61.92
2023-04-03T15:47:05.040Z,60.92
2023-04-03T15:49:35.141Z,61.06
2023-04-03T15:52:02.773Z,61.85
2023-04-03T15:54:31.002Z,61.93
2023-04-03T15:56:59.338Z,60.56
2023-04-03T15:59:26.806Z,60.74
2023-04-03T16:01:54.587Z,61.10
2023-04-03T16:04:23.554Z,61.57
2023-04-03T16:06:51.885Z,60.51
2023-04-03T16:09:19.478Z,59.96
2023-04-03T16:11:46.924Z,60.25
2023-04-03T16:14:14.331Z,62.19
2023-04-03T16:16:41.946Z,61.76
2023-04-03T16:19:10.898Z,61.55
2023-04-03T16:21:39.850Z,61.23
2023-04-03T16:24:07.565Z,61.37
2023-04-03T16:26:35.033Z,62.25
2023-04-03T16:29:02.469Z,61.85
2023-04-03T16:31:30.317Z,63.22
2023-04-03T16:33:58.245Z,63.69
2023-04-03T16:36:26.163Z,62.81
2023-04-03T16:38:54.972Z,63.63
2023-04-03T16:41:22.564Z,63.49
2023-04-03T16:43:50.958Z,63.91
2023-04-03T16:46:18.489Z,64.78
2023-04-03T16:48:45.900Z,64.93
2023-04-03T16:51:14.056Z,65.38
2023-04-03T16:53:41.666Z,65.84
2023-04-03T16:56:10.469Z,66.86
2023-04-03T16:58:37.919Z,66.38
2023-04-03T17:01:13.171Z,67.83
2023-04-03T17:03:41.212Z,67.37
2023-04-03T17:06:08.910Z,66.92
2023-04-03T17:08:36.577Z,66.91
2023-04-03T17:11:04.045Z,67.73
2023-04-03T17:13:34.696Z,67.00
2023-04-03T17:16:05.680Z,67.07
2023-04-03T17:18:34.148Z,67.39
2023-04-03T17:21:02.523Z,67.08
2023-04-03T17:23:30.487Z,66.90
2023-04-03T17:25:58.212Z,65.89
2023-04-03T17:28:28.656Z,66.64
2023-04-03T17:30:59.066Z,67.10
2023-04-03T17:33:28.352Z,66.86
2023-04-03T17:35:58.324Z,65.28
2023-04-03T17:38:25.933Z,66.36
2023-04-03T17:40:53.410Z,66.16
2023-04-03T17:43:20.940Z,66.41
2023-04-03T17:45:48.495Z,65.76
2023-04-03T17:48:17.256Z,67.25
2023-04-03T17:50:44.675Z,67.10
2023-04-03T17:53:12.135Z,67.87
2023-04-03T17:55:40.122Z,67.72
2023-04-03T17:58:07.827Z,68.19
2023-04-03T18:00:35.222Z,67.27
2023-04-03T18:03:03.616Z,67.71
2023-04-03T18:05:32.627Z,68.54
2023-04-03T18:08:01.924Z,68.13
2023-04-03T18:10:30.196Z,67.91
2023-04-03T18:12:58.171Z,68.40
2023-04-03T18:15:25.936Z,69.34
2023-04-03T18:17:56.616Z,68.06
2023-04-03T18:20:24.140Z,69.01
2023-04-03T18:22:53.147Z,68.77
2023-04-03T18:25:20.977Z,69.08
2023-04-03T18:27:49.722Z,67.21
2023-04-03T18:30:18.837Z,69.32
2023-04-03T18:32:46.377Z,69.01
2023-04-03T18:35:13.979Z,69.94
2023-04-03T18:37:41.479Z,70.47
2023-04-03T18:40:11.896Z,69.60
2023-04-03T18:42:41.495Z,70.48
2023-04-03T18:45:12.393Z,70.42
2023-04-03T18:47:40.710Z,70.43
2023-04-03T18:50:09.710Z,70.99
2023-04-03T18:52:37.150Z,71.21
2023-04-03T18:55:05.068Z,71.83
2023-04-03T18:57:34.061Z,71.10
2023-04-03T19:00:01.821Z,71.57
2023-04-03T19:02:29.817Z,72.45
2023-04-03T19:04:57.671Z,71.99
2023-04-03T19:07:25.225Z,73.26
2023-04-03T19:09:52.910Z,73.72
2023-04-03T19:12:20.885Z,73.01
2023-04-03T19:14:49.711Z,73.14
2023-04-03T19:17:17.499Z,73.61
2023-04-03T19:19:45.277Z,73.78
2023-04-03T19:22:12.744Z,73.88
2023-04-03T19:24:40.159Z,74.08
2023-04-03T19:27:07.601Z,73.85
2023-04-03T19:29:35.205Z,74.57
2023-04-03T19:32:03.985Z,74.05
2023-04-03T19:34:31.470Z,74.07
2023-04-03T19:36:59.097Z,74.21
2023-04-03T19:39:29.034Z,74.05
2023-04-03T19:41:56.492Z,74.70
2023-04-03T19:44:23.962Z,74.80
2023-04-03T19:46:51.805Z,75.41
2023-04-03T19:49:21.791Z,75.69
2023-04-03T19:51:49.266Z,75.03
2023-04-03T19:54:16.682Z,74.45
2023-04-03T19:56:44.143Z,74.61
2023-04-03T19:59:11.842Z,75.57
2023-04-03T20:01:39.362Z,76.53
2023-04-03T20:04:06.885Z,75.01
2023-04-03T20:06:36.758Z,75.28
2023-04-03T20:09:04.729Z,74.75
2023-04-03T20:11:32.130Z,77.03
2023-04-03T20:13:59.523Z,76.74
2023-04-03T20:16:28.186Z,76.58
2023-04-03T20:18:56.631Z,77.72
2023-04-03T20:21:31.869Z,77.37
2023-04-03T20:24:01.468Z,77.08
2023-04-03T20:26:31.718Z,77.83
2023-04-03T20:29:03.388Z,78.28
2023-04-03T20:31:33.485Z,76.50
2023-04-03T20:34:01.440Z,77.36
2023-04-03T20:36:30.896Z,77.42
2023-04-03T20:38:59.819Z,77.61
2023-04-03T20:41:27.415Z,78.13
2023-04-03T20:43:54.901Z,76.67
2023-04-03T20:46:25.440Z,79.13
2023-04-03T20:48:53.579Z,79.43
2023-04-03T20:51:22.105Z,78.63
2023-04-03T20:53:49.626Z,76.74
2023-04-03T20:56:18.443Z,77.87
2023-04-03T20:58:47.221Z,78.72
2023-04-03T21:01:17.150Z,78.13
2023-04-03T21:03:46.227Z,78.56
2023-04-03T21:06:51.699Z,79.58
2023-04-03T21:09:56.731Z,78.11
2023-04-03T21:13:01.898Z,76.10
2023-04-03T21:15:47.454Z,78.16
2023-04-03T21:18:40.164Z,77.05
2023-04-03T21:21:08.429Z,77.88
2023-04-03T21:23:35.865Z,78.94
2023-04-03T21:26:03.353Z,77.71
2023-04-03T21:28:31.646Z,77.28
2023-04-03T21:30:59.097Z,78.12
2023-04-03T21:33:30.270Z,78.44
2023-04-03T21:35:59.801Z,79.56
2023-04-03T21:38:27.524Z,78.86
2023-04-03T21:40:57.494Z,78.66
2023-04-03T21:43:25.015Z,79.36
2023-04-03T21:45:54.289Z,78.48
2023-04-03T21:48:23.648Z,79.12
2023-04-03T21:50:53.636Z,79.77
2023-04-03T21:53:22.520Z,79.97
2023-04-03T21:55:57.244Z,79.78
2023-04-03T21:58:30.399Z,79.68
2023-04-03T22:00:57.945Z,79.72
2023-04-03T22:03:25.757Z,85.93
2023-04-03T22:05:54.519Z,85.66
2023-04-03T22:08:21.976Z,74.87
2023-04-03T22:10:49.622Z,69.10
2023-04-03T22:13:17.045Z,76.83
2023-04-03T22:15:48.248Z,75.95
2023-04-03T22:18:15.741Z,74.76
2023-04-03T22:20:44.251Z,72.76
2023-04-03T22:23:13.009Z,75.75
2023-04-03T22:25:40.442Z,74.95
2023-04-03T22:28:07.968Z,78.49
2023-04-03T22:30:36.182Z,78.56
2023-04-03T22:33:03.670Z,78.83
2023-04-03T22:35:31.454Z,79.93
2023-04-03T22:37:59.338Z,79.85
2023-04-03T22:40:28.109Z,79.27
2023-04-03T22:42:55.510Z,77.84
2023-04-03T22:45:22.914Z,77.83
2023-04-03T22:47:50.454Z,76.84
2023-04-03T22:50:17.968Z,79.80
2023-04-03T22:52:45.421Z,78.75
2023-04-03T22:55:19.082Z,79.89
2023-04-03T22:57:48.636Z,80.17
2023-04-03T23:00:17.458Z,80.13
2023-04-03T23:02:44.900Z,79.63
2023-04-03T23:05:12.356Z,80.22
2023-04-03T23:07:39.822Z,80.32
2023-04-03T23:10:08.059Z,81.52
2023-04-03T23:12:38.208Z,81.02
2023-04-03T23:15:08.232Z,80.38
2023-04-03T23:17:37.079Z,80.95
2023-04-03T23:20:05.297Z,80.38
2023-04-03T23:22:32.758Z,80.83
2023-04-03T23:25:00.146Z,80.88
2023-04-03T23:27:27.797Z,81.21
2023-04-03T23:29:55.609Z,79.59
2023-04-03T23:32:24.394Z,81.07
2023-04-03T23:34:51.820Z,80.72
2023-04-03T23:37:19.229Z,81.21
2023-04-03T23:39:46.646Z,80.88
2023-04-03T23:42:14.134Z,81.69
2023-04-03T23:44:41.558Z,82.34
2023-04-03T23:47:08.950Z,82.77
2023-04-03T23:49:38.327Z,82.04
2023-04-03T23:52:06.163Z,81.10
2023-04-03T23:54:33.609Z,81.88
2023-04-03T23:57:00.994Z,81.71
2023-04-03T23:59:30.754Z,82.33
